Time;durP1;ratioP1;P1;durP2;ratioP2;P2;SDS_P1;SDS_P2;PMS_P1;PMS_P2;Temp;Humidity;BMP_temperature;BMP_pressure;BME280_temperature;BME280_humidity;BME280_pressure;Samples;Min_cycle;Max_cycle;Signal;HPM_P1;HPM_P2
2023/03/10 00:00:39;;;;;;;1.60;1.50;;;;;;;14.74;100.00;149743.00;5050622;28;20556;-63
2023/03/10 00:03:06;;;;;;;1.40;1.40;;;;;;;14.68;100.00;149726.56;5049541;28;20718;-62
2023/03/10 00:05:33;;;;;;;2.13;1.73;;;;;;;14.57;100.00;149701.16;5050071;28;20186;-63
2023/03/10 00:08:00;;;;;;;1.43;1.43;;;;;;;14.65;100.00;149720.19;5050081;28;20189;-63
2023/03/10 00:10:27;;;;;;;1.53;1.47;;;;;;;14.58;100.00;149702.44;5050489;28;20575;-63
2023/03/10 00:12:54;;;;;;;1.40;1.30;;;;;;;14.45;100.00;149669.47;5050688;28;20189;-63
2023/03/10 00:15:20;;;;;;;1.63;1.17;;;;;;;14.56;100.00;149697.34;5050813;28;20185;-63
2023/03/10 00:17:54;;;;;;;1.53;1.43;;;;;;;14.52;100.00;149687.22;5050850;28;20225;-63
2023/03/10 00:20:21;;;;;;;1.60;1.50;;;;;;;14.54;100.00;149692.31;5051307;28;20196;-63
2023/03/10 00:22:48;;;;;;;1.37;1.37;;;;;;;14.47;100.00;149674.56;5051416;28;20212;-63
2023/03/10 00:25:15;;;;;;;2.00;1.33;;;;;;;14.46;100.00;149673.31;5051797;28;20193;-63
2023/03/10 00:27:42;;;;;;;1.23;1.23;;;;;;;14.50;100.00;149683.44;5051126;28;20307;-62
2023/03/10 00:30:10;;;;;;;1.53;1.53;;;;;;;14.32;100.00;149636.47;5051398;28;20193;-63
2023/03/10 00:32:37;;;;;;;1.47;1.47;;;;;;;14.40;100.00;149656.78;5050845;28;20185;-62
2023/03/10 00:35:06;;;;;;;2.83;1.80;;;;;;;14.38;100.00;149651.75;5050363;28;20191;-63
2023/03/10 00:37:37;;;;;;;1.50;1.40;;;;;;;14.28;100.00;149626.31;5049536;28;20191;-62
2023/03/10 00:40:06;;;;;;;1.50;1.50;;;;;;;14.28;100.00;149626.31;5050020;28;20185;-64
2023/03/10 00:42:33;;;;;;;1.47;1.47;;;;;;;14.13;100.00;149589.59;5049368;28;20209;-62
2023/03/10 00:44:59;;;;;;;1.60;1.50;;;;;;;14.23;100.00;149614.91;5049324;28;20276;-63
2023/03/10 00:47:26;;;;;;;1.67;1.57;;;;;;;14.23;100.00;149613.63;5048658;28;20188;-63
2023/03/10 00:49:53;;;;;;;1.50;1.40;;;;;;;14.25;100.00;149618.72;5050253;28;20500;-62
2023/03/10 00:52:22;;;;;;;1.30;1.30;;;;;;;14.22;100.00;149612.34;5049940;28;20197;-64
2023/03/10 00:54:50;;;;;;;1.10;1.10;;;;;;;14.28;100.00;149627.59;5049233;28;20185;-63
2023/03/10 00:57:17;;;;;;;1.27;1.27;;;;;;;14.33;100.00;149639.00;5050010;28;20306;-63
2023/03/10 00:59:44;;;;;;;1.40;1.30;;;;;;;14.31;100.00;149633.91;5049406;28;20181;-62
2023/03/10 01:02:11;;;;;;;1.30;1.30;;;;;;;14.40;100.00;149658.06;5049268;28;20628;-63
2023/03/10 01:04:38;;;;;;;2.30;1.43;;;;;;;14.38;100.00;149651.75;5049479;28;20197;-63
2023/03/10 01:07:05;;;;;;;2.00;1.90;;;;;;;14.33;100.00;149640.28;5049096;28;20189;-62
2023/03/10 01:09:33;;;;;;;1.67;1.67;;;;;;;14.40;100.00;149656.78;5049174;28;20185;-61
2023/03/10 01:12:00;;;;;;;3.83;2.30;;;;;;;14.43;100.00;149664.38;5049635;28;20182;-63
2023/03/10 01:14:27;;;;;;;2.60;2.40;;;;;;;14.33;100.00;149640.28;5049627;28;20181;-63
2023/03/10 01:16:54;;;;;;;2.90;2.30;;;;;;;14.23;100.00;149614.91;5094256;27;20734;-63
2023/03/10 01:19:21;;;;;;;13.60;2.87;;;;;;;14.24;100.00;149616.19;5133629;27;20183;-63
2023/03/10 01:21:48;;;;;;;3.20;2.90;;;;;;;14.14;100.00;149592.09;5133271;27;20289;-63
2023/03/10 01:24:15;;;;;;;3.43;3.13;;;;;;;13.96;100.00;149546.50;5133470;27;20218;-64
2023/03/10 01:26:44;;;;;;;3.40;3.30;;;;;;;14.03;100.00;149565.50;5133428;27;20640;-62
2023/03/10 01:29:11;;;;;;;3.33;3.03;;;;;;;14.02;100.00;149562.94;5132822;27;20178;-62
2023/03/10 01:31:37;;;;;;;3.93;3.50;;;;;;;13.97;100.00;149550.25;5133268;27;20182;-63
2023/03/10 01:34:04;;;;;;;3.10;2.90;;;;;;;13.87;100.00;149523.66;5132460;27;20561;-63
2023/03/10 01:36:31;;;;;;;2.93;2.83;;;;;;;13.93;100.00;149538.84;5132599;27;20641;-63
2023/03/10 01:38:59;;;;;;;3.03;2.93;;;;;;;13.96;100.00;149547.72;5132110;27;20191;-64
2023/03/10 01:41:33;;;;;;;3.23;3.03;;;;;;;13.88;100.00;149527.44;5132346;27;20432;-63
2023/03/10 01:44:03;;;;;;;3.00;2.80;;;;;;;13.97;100.00;149548.97;5130403;27;20277;-62
2023/03/10 01:46:49;;;;;;;3.23;3.13;;;;;;;14.02;100.00;149562.94;5132304;27;20189;-63
2023/03/10 01:49:39;;;;;;;2.93;2.83;;;;;;;13.78;100.00;149500.84;5132746;27;20635;-63
2023/03/10 01:52:10;;;;;;;2.77;2.57;;;;;;;13.58;100.00;149451.41;5124449;28;20191;-62
2023/03/10 01:54:44;;;;;;;2.60;2.50;;;;;;;13.36;100.00;149395.69;5132522;28;20197;-63
2023/03/10 01:57:13;;;;;;;3.43;3.33;;;;;;;13.55;100.00;149445.09;5132447;28;20578;-63
2023/03/10 01:59:42;;;;;;;3.00;2.90;;;;;;;13.41;100.00;149409.59;5135647;27;20648;-62
2023/03/10 02:02:10;;;;;;;2.93;2.60;;;;;;;13.45;100.00;149418.50;5136492;27;20230;-63
2023/03/10 02:04:42;;;;;;;2.40;2.30;;;;;;;13.37;100.00;149399.47;5136664;27;20186;-63
2023/03/10 02:07:10;;;;;;;2.80;2.70;;;;;;;13.36;100.00;145427.16;5136551;27;20175;-63
2023/03/10 02:09:40;;;;;;;2.20;2.20;;;;;;;13.30;100.00;129992.81;5136582;27;20190;-62
2023/03/10 02:12:09;;;;;;;2.83;2.60;;;;;;;13.30;100.00;120337.31;5136353;27;20274;-62
2023/03/10 02:14:36;;;;;;;2.97;2.77;;;;;;;13.20;100.00;115334.81;5136737;27;20266;-63
2023/03/10 02:17:09;;;;;;;2.60;2.50;;;;;;;13.19;100.00;107044.53;5136194;27;20226;-63
2023/03/10 02:19:51;;;;;;;2.93;2.83;;;;;;;13.20;100.00;103736.00;5136421;27;20205;-63
2023/03/10 02:22:18;;;;;;;2.43;2.33;;;;;;;13.10;100.00;103387.59;5136664;27;20645;-63
2023/03/10 02:24:49;;;;;;;3.23;3.03;;;;;;;13.08;100.00;99416.97;5136617;27;20186;-62
2023/03/10 02:27:26;;;;;;;3.77;3.00;;;;;;;13.04;100.00;97428.50;5136169;27;20187;-63
2023/03/10 02:29:59;;;;;;;2.77;2.63;;;;;;;12.90;100.00;95755.13;5136200;27;20186;-63
2023/03/10 02:32:27;;;;;;;2.77;2.67;;;;;;;13.08;100.00;95784.50;5136371;27;20202;-62
2023/03/10 02:34:54;;;;;;;3.20;3.00;;;;;;;13.09;100.00;100078.69;5136232;27;20197;-62
2023/03/10 02:37:24;;;;;;;2.80;2.60;;;;;;;13.10;100.00;102064.69;5136036;27;20187;-63
2023/03/10 02:39:51;;;;;;;3.20;3.00;;;;;;;13.07;100.00;103051.50;5136261;27;20179;-63
2023/03/10 02:42:19;;;;;;;3.90;3.70;;;;;;;13.09;100.00;104046.53;5136192;27;20225;-63
2023/03/10 02:44:48;;;;;;;3.17;2.97;;;;;;;13.01;100.00;105355.81;5135819;27;20183;-63
2023/03/10 02:47:16;;;;;;;3.10;3.00;;;;;;;12.97;100.00;102372.69;5136104;27;20553;-63
2023/03/10 02:49:43;;;;;;;3.43;3.10;;;;;;;12.91;100.00;101369.72;5136177;27;20187;-64
2023/03/10 02:52:19;;;;;;;3.20;3.10;;;;;;;12.83;100.00;100036.09;5136020;27;20557;-62
2023/03/10 02:54:46;;;;;;;9.20;3.23;;;;;;;12.87;100.00;94100.94;5135930;27;20629;-64
2023/03/10 02:57:13;;;;;;;5.00;2.70;;;;;;;12.82;100.00;89808.78;5135873;27;20599;-63
2023/03/10 02:59:40;;;;;;;3.13;3.03;;;;;;;12.47;100.00;84164.81;5135915;27;20217;-63
2023/03/10 03:02:08;;;;;;;3.50;3.20;;;;;;;12.81;100.00;81912.13;5135754;27;20633;-62
2023/03/10 03:04:36;;;;;;;3.90;3.30;;;;;;;12.77;100.00;78950.72;5135923;27;20183;-63
2023/03/10 03:07:03;;;;;;;4.20;3.80;;;;;;;12.75;100.00;80589.75;5135505;27;20183;-62
2023/03/10 03:09:30;;;;;;;3.63;3.43;;;;;;;12.61;100.00;77617.22;5135713;27;20629;-64
2023/03/10 03:11:58;;;;;;;6.27;3.10;;;;;;;12.63;100.00;72701.53;5135708;27;20629;-63
2023/03/10 03:14:25;;;;;;;3.57;3.30;;;;;;;12.49;100.00;70064.78;5135310;27;20282;-63
2023/03/10 03:16:53;;;;;;;3.90;3.70;;;;;;;12.56;100.00;69091.97;5134976;27;20234;-64
2023/03/10 03:19:21;;;;;;;3.37;3.10;;;;;;;12.54;100.00;67453.31;5135445;27;20198;-63
2023/03/10 03:21:48;;;;;;;3.60;3.40;;;;;;;12.49;100.00;64178.72;5135541;27;20583;-63
2023/03/10 03:24:16;;;;;;;3.30;2.97;;;;;;;12.45;100.00;60583.03;5135119;27;20209;-64
2023/03/10 03:26:43;;;;;;;3.47;3.27;;;;;;;12.32;100.00;60896.25;5135244;27;20198;-63
2023/03/10 03:29:10;;;;;;;3.07;2.87;;;;;;;12.40;100.00;59924.69;5134976;27;20195;-63
2023/03/10 03:31:38;;;;;;;3.80;3.60;;;;;;;12.40;100.00;60250.97;5135033;27;20255;-63
2023/03/10 03:34:06;;;;;;;3.33;3.23;;;;;;;12.29;100.00;57305.66;5134938;27;20186;-63
2023/03/10 03:36:36;;;;;;;4.13;3.93;;;;;;;12.19;100.00;53387.09;5134877;27;20194;-63
2023/03/10 03:39:05;;;;;;;4.90;3.23;;;;;;;12.43;100.00;48527.59;5135114;27;20179;-63
2023/03/10 03:41:32;;;;;;;4.47;3.63;;;;;;;12.42;100.00;45276.09;5135112;27;20553;-63
2023/03/10 03:43:59;;;;;;;4.20;4.00;;;;;;;12.46;100.00;44954.41;5134724;27;20291;-63
2023/03/10 03:46:26;;;;;;;3.77;3.67;;;;;;;12.49;100.00;43982.31;5134877;27;20562;-62
2023/03/10 03:48:53;;;;;;;4.30;4.10;;;;;;;12.49;100.00;41710.00;5134745;27;20185;-62
2023/03/10 03:51:19;;;;;;;4.53;4.33;;;;;;;12.48;100.00;38789.53;5134693;27;20190;-63
2023/03/10 03:53:48;;;;;;;4.33;4.03;;;;;;;12.48;100.00;36844.13;5134537;27;20182;-63
2023/03/10 03:56:15;;;;;;;4.57;4.40;;;;;;;12.36;100.00;34569.19;5116194;27;20189;-62
2023/03/10 03:58:41;;;;;;;4.90;4.60;;;;;;;12.50;100.00;32958.56;5134558;27;20206;-62
2023/03/10 04:01:11;;;;;;;5.20;4.90;;;;;;;12.46;100.00;31014.56;5134338;27;20183;-63
2023/03/10 04:03:38;;;;;;;5.17;4.97;;;;;;;12.46;100.00;29074.34;5134246;27;20616;-62
2023/03/10 04:06:06;;;;;;;4.80;4.50;;;;;;;12.41;100.00;26809.16;5134341;27;20182;-63
2023/03/10 04:08:33;;;;;;;4.90;4.70;;;;;;;12.41;100.00;23902.97;5134281;27;20189;-62
2023/03/10 04:11:02;;;;;;;5.60;5.20;;;;;;;12.45;100.00;20033.00;5134472;27;20553;-63
2023/03/10 04:13:28;;;;;;;5.60;5.23;;;;;;;12.40;100.00;18419.63;5134514;27;20227;-63
2023/03/10 04:15:56;;;;;;;5.60;5.30;;;;;;;12.47;100.00;18422.09;5134095;27;20187;-63
2023/03/10 04:18:23;;;;;;;5.37;5.17;;;;;;;12.48;100.00;17777.72;5134048;27;20187;-64
2023/03/10 04:20:50;;;;;;;5.40;5.10;;;;;;;12.40;100.00;16808.72;5133686;27;20189;-63
2023/03/10 04:23:17;;;;;;;5.20;5.00;;;;;;;12.38;100.00;16163.94;5133676;27;20211;-63
2023/03/10 04:25:44;;;;;;;5.50;5.20;;;;;;;12.53;100.00;16812.97;5133873;27;20182;-63
2023/03/10 04:28:12;;;;;;;5.87;5.57;;;;;;;12.41;100.00;17453.16;5133723;27;20198;-62
2023/03/10 04:30:42;;;;;;;5.60;5.40;;;;;;;12.49;100.00;17133.66;5134060;27;20212;-63
2023/03/10 04:33:09;;;;;;;5.37;5.17;;;;;;;12.50;100.00;17456.19;5133962;27;20611;-63
2023/03/10 04:35:39;;;;;;;4.97;4.77;;;;;;;12.43;100.00;17453.81;5133606;27;20187;-63
2023/03/10 04:38:06;;;;;;;4.80;4.60;;;;;;;12.47;100.00;17133.00;5133569;27;20187;-62
2023/03/10 04:40:33;;;;;;;5.30;5.07;;;;;;;12.46;100.00;16810.50;5133547;27;20189;-63
2023/03/10 04:43:03;;;;;;;6.23;5.13;;;;;;;12.47;100.00;16488.72;5133483;27;20217;-63
2023/03/10 04:45:32;;;;;;;5.80;5.40;;;;;;;12.45;100.00;16166.16;5133704;27;20549;-64
2023/03/10 04:48:00;;;;;;;5.63;5.33;;;;;;;12.51;100.00;16490.00;5133599;27;20580;-63
2023/03/10 04:50:27;;;;;;;6.77;5.37;;;;;;;12.57;100.00;17458.72;5133378;27;20202;-63
2023/03/10 04:52:54;;;;;;;5.17;4.87;;;;;;;12.65;100.00;17783.72;5133278;27;20671;-63
2023/03/10 04:55:21;;;;;;;5.47;5.13;;;;;;;12.54;100.00;20036.41;5133434;27;20202;-62
2023/03/10 04:57:47;;;;;;;7.00;6.07;;;;;;;12.78;100.00;22304.81;5133387;27;20190;-64
2023/03/10 05:00:15;;;;;;;12.63;7.40;;;;;;;12.90;100.00;26833.19;5133242;27;20183;-63
2023/03/10 05:02:43;;;;;;;18.57;8.07;;;;;;;13.02;100.00;30722.13;5133387;27;20199;-63
2023/03/10 05:05:11;;;;;;;26.53;7.80;;;;;;;12.98;100.00;39148.13;5133355;27;20533;-64
2023/03/10 05:07:38;;;;;;;21.43;8.23;;;;;;;13.08;100.00;43702.84;5133178;27;20189;-63
2023/03/10 05:10:06;;;;;;;16.63;8.50;;;;;;;13.22;100.00;48594.22;5132925;27;20191;-63
2023/03/10 05:12:33;;;;;;;19.87;7.47;;;;;;;13.46;100.00;58727.00;5133279;27;20621;-63
2023/03/10 05:14:59;;;;;;;20.30;6.73;;;;;;;14.09;100.00;67632.25;5114707;27;20178;-63
2023/03/10 05:17:27;;;;;;;3.97;3.67;;;;;;;14.77;100.00;111314.56;5132837;27;20749;-64
2023/03/10 05:19:55;;;;;;;5.03;3.90;;;;;;;15.04;100.00;149819.13;5132656;27;20183;-63
2023/03/10 05:22:22;;;;;;;3.60;3.30;;;;;;;15.44;100.00;149919.38;5132678;27;20198;-64
2023/03/10 05:24:49;;;;;;;3.40;3.30;;;;;;;15.55;100.00;149946.03;5132624;27;20214;-63
2023/03/10 05:27:18;;;;;;;7.93;3.83;;;;;;;15.40;100.00;149907.94;5133011;27;20290;-65
2023/03/10 05:29:45;;;;;;;3.30;3.00;;;;;;;15.25;100.00;149871.13;5132627;27;20190;-63
2023/03/10 05:32:12;;;;;;;4.20;2.60;;;;;;;15.37;100.00;149900.28;5132544;27;20202;-63
2023/03/10 05:34:39;;;;;;;4.63;2.93;;;;;;;15.38;100.00;149902.84;5132181;27;20187;-63
2023/03/10 05:37:07;;;;;;;10.10;3.50;;;;;;;15.50;100.00;149934.63;5132440;27;20179;-62
2023/03/10 05:39:34;;;;;;;7.63;3.30;;;;;;;15.86;100.00;150024.75;5132954;27;20214;-64
2023/03/10 05:42:01;;;;;;;13.10;4.40;;;;;;;16.09;100.00;150080.56;5132655;27;20218;-64
2023/03/10 05:44:28;;;;;;;9.97;4.20;;;;;;;16.09;100.00;150081.81;5082810;27;20214;-64
2023/03/10 05:46:55;;;;;;;4.10;3.80;;;;;;;15.76;100.00;149999.34;5132816;27;20525;-64
2023/03/10 05:49:22;;;;;;;4.67;4.30;;;;;;;15.56;100.00;149948.59;5132621;27;20194;-64
2023/03/10 05:51:49;;;;;;;7.63;5.07;;;;;;;15.62;100.00;149963.78;5132451;27;20193;-64
2023/03/10 05:54:17;;;;;;;4.07;3.77;;;;;;;15.81;100.00;150010.75;5132376;28;20183;-64
2023/03/10 05:56:44;;;;;;;6.60;4.00;;;;;;;15.89;100.00;150031.06;5132373;28;20188;-64
2023/03/10 05:59:11;;;;;;;6.53;3.90;;;;;;;16.24;100.00;150119.94;5114194;28;20650;-64
2023/03/10 06:01:38;;;;;;;6.43;4.13;;;;;;;16.40;100.00;150159.28;5132661;28;20223;-64
2023/03/10 06:04:05;;;;;;;5.17;4.57;;;;;;;16.68;100.00;150229.16;5132755;28;20251;-67
2023/03/10 06:06:32;;;;;;;4.77;4.33;;;;;;;16.93;100.00;150291.44;5132205;28;20190;-58
2023/03/10 06:09:00;;;;;;;5.30;4.07;;;;;;;17.13;100.00;150343.50;5132210;28;20256;-60
2023/03/10 06:11:28;;;;;;;6.20;4.60;;;;;;;17.45;100.00;150423.53;5132105;28;20178;-62
2023/03/10 06:13:55;;;;;;;14.97;5.43;;;;;;;17.76;100.00;150502.41;5132645;28;20553;-65
2023/03/10 06:16:22;;;;;;;4.13;3.83;;;;;;;18.05;100.00;150574.84;5131994;28;20222;-64
2023/03/10 06:18:53;;;;;;;5.40;3.20;;;;;;;18.44;100.00;150672.75;5132313;28;20183;-66
2023/03/10 06:21:19;;;;;;;4.80;3.40;;;;;;;18.67;100.00;150731.28;5132522;28;20281;-65
2023/03/10 06:23:47;;;;;;;3.23;3.03;;;;;;;19.08;100.00;150833.06;5132464;28;20202;-65
2023/03/10 06:26:16;;;;;;;5.47;2.83;;;;;;;19.41;100.00;150915.75;5132164;28;20179;-65
2023/03/10 06:28:45;;;;;;;7.17;3.40;;;;;;;19.39;100.00;150910.72;5132166;28;20190;-65
2023/03/10 06:31:14;;;;;;;3.57;2.37;;;;;;;18.72;100.00;150742.72;5114228;28;20179;-65
2023/03/10 06:33:42;;;;;;;4.60;2.43;;;;;;;18.74;100.00;150747.84;5131998;28;20187;-65
2023/03/10 06:36:09;;;;;;;2.80;2.50;;;;;;;18.77;100.00;150754.19;5132067;28;20179;-65
2023/03/10 06:38:36;;;;;;;2.67;2.47;;;;;;;18.93;100.00;150794.88;5132255;28;20709;-64
2023/03/10 06:41:03;;;;;;;3.73;3.43;;;;;;;18.93;100.00;150794.88;5132187;28;20183;-64
2023/03/10 06:43:31;;;;;;;3.07;2.87;;;;;;;19.34;100.00;150897.97;5131653;28;20206;-66
2023/03/10 06:45:59;;;;;;;7.07;5.20;;;;;;;18.97;100.00;150805.06;5135129;27;20202;-65
2023/03/10 06:48:26;;;;;;;10.13;9.17;;;;;;;18.67;100.00;150730.06;5135976;27;20554;-65
2023/03/10 06:50:54;;;;;;;17.50;15.03;;;;;;;18.00;100.00;150562.13;5135363;27;20222;-64
2023/03/10 06:53:21;;;;;;;12.87;11.93;;;;;;;17.63;100.00;150469.34;5135888;27;20563;-63
2023/03/10 06:55:57;;;;;;;11.33;10.27;;;;;;;17.37;100.00;150403.22;5135871;27;20213;-65
2023/03/10 06:58:24;;;;;;;10.00;9.10;;;;;;;17.49;100.00;150432.44;5135793;27;20593;-64
2023/03/10 07:00:51;;;;;;;8.60;7.80;;;;;;;17.75;100.00;150499.84;5135328;27;20641;-65
2023/03/10 07:03:19;;;;;;;7.63;7.30;;;;;;;17.79;100.00;150510.00;5135193;27;20194;-64
2023/03/10 07:05:46;;;;;;;7.73;6.97;;;;;;;18.21;100.00;150615.53;5135309;27;20649;-65
2023/03/10 07:08:17;;;;;;;8.80;6.67;;;;;;;18.20;100.00;150611.75;5135000;27;20310;-65
2023/03/10 07:10:44;;;;;;;6.37;5.83;;;;;;;18.81;100.00;150764.34;5135200;27;20182;-65
2023/03/10 07:13:14;;;;;;;5.93;5.30;;;;;;;18.89;100.00;150784.72;5135622;27;20187;-65
2023/03/10 07:15:41;;;;;;;8.47;5.80;;;;;;;19.17;100.00;150855.97;5135310;27;20183;-64
2023/03/10 07:18:08;;;;;;;6.20;4.60;;;;;;;18.94;100.00;150797.44;5135305;27;20182;-64
2023/03/10 07:20:40;;;;;;;9.97;6.13;;;;;;;18.98;100.00;150808.88;5135355;27;20637;-64
2023/03/10 07:23:06;;;;;;;6.37;5.87;;;;;;;19.40;100.00;150914.50;5134880;27;20194;-64
2023/03/10 07:25:35;;;;;;;12.50;5.97;;;;;;;19.56;100.00;150955.25;5135473;27;20576;-64
2023/03/10 07:28:02;;;;;;;6.50;5.43;;;;;;;19.47;100.00;150931.09;5134875;27;20183;-64
2023/03/10 07:30:29;;;;;;;5.33;4.93;;;;;;;19.63;100.00;150970.53;5135108;27;20194;-65
2023/03/10 07:32:56;;;;;;;5.00;4.50;;;;;;;19.99;100.00;151062.19;5134832;27;20262;-66
2023/03/10 07:35:23;;;;;;;4.97;4.57;;;;;;;20.00;100.00;151064.72;5135125;27;20513;-64
2023/03/10 07:37:51;;;;;;;5.67;5.17;;;;;;;19.90;100.00;151039.31;5134694;27;20183;-64
2023/03/10 07:40:21;;;;;;;8.75;4.82;;;;;;;19.80;100.00;151013.81;5135029;27;20190;-64
2023/03/10 07:42:48;;;;;;;6.43;3.07;;;;;;;19.78;100.00;151008.72;5134531;27;20232;-63
2023/03/10 07:45:15;;;;;;;3.93;2.50;;;;;;;19.83;100.00;151022.72;5134373;27;20215;-63
2023/03/10 07:47:42;;;;;;;2.78;2.63;;;;;;;19.54;100.00;150950.19;5134810;27;20253;-63
2023/03/10 07:50:10;;;;;;;1.70;1.60;;;;;;;19.63;100.00;150970.53;5134511;27;20213;-63
2023/03/10 07:52:37;;;;;;;9.63;2.10;;;;;;;19.63;100.00;150971.81;5134227;27;20265;-62
2023/03/10 07:55:06;;;;;;;5.27;2.20;;;;;;;19.94;100.00;151049.47;5134276;27;20182;-63
2023/03/10 07:57:33;;;;;;;6.63;2.10;;;;;;;20.18;100.00;151109.31;5133397;27;20197;-64
2023/03/10 08:00:00;;;;;;;6.80;2.50;;;;;;;20.30;100.00;151139.91;5134322;27;20190;-64
2023/03/10 08:02:27;;;;;;;4.28;2.70;;;;;;;20.67;100.00;151232.84;5133933;27;20212;-64
2023/03/10 08:04:56;;;;;;;2.20;2.00;;;;;;;20.73;100.00;151249.44;5134127;27;20225;-65
2023/03/10 08:07:26;;;;;;;2.20;2.10;;;;;;;20.83;100.00;151274.94;5134339;27;20553;-65
2023/03/10 08:09:54;;;;;;;5.65;2.10;;;;;;;21.27;100.00;151385.78;5133848;27;20278;-62
2023/03/10 08:12:30;;;;;;;2.35;2.25;;;;;;;21.36;100.00;151408.72;5134577;27;20561;-67
2023/03/10 08:14:58;;;;;;;2.40;1.83;;;;;;;22.04;100.00;151579.56;5134282;27;20198;-65
2023/03/10 08:17:32;;;;;;;5.00;1.80;;;;;;;22.42;100.00;151673.91;5133604;27;20318;-65
2023/03/10 08:19:59;;;;;;;2.45;1.40;;;;;;;22.53;100.00;151702.00;5133784;27;20183;-65
2023/03/10 08:22:27;;;;;;;2.90;1.60;;;;;;;22.69;100.00;151744.13;5083039;27;20549;-63
2023/03/10 08:24:54;;;;;;;2.20;2.10;;;;;;;23.12;97.17;151851.28;5133610;27;20287;-64
2023/03/10 08:27:23;;;;;;;3.65;3.35;;;;;;;22.80;96.52;151770.91;5133983;27;20198;-64
2023/03/10 08:29:50;;;;;;;10.48;3.47;;;;;;;22.90;95.91;151796.44;5100534;27;20210;-63
2023/03/10 08:32:18;;;;;;;3.85;3.55;;;;;;;23.29;93.49;151893.41;5097189;28;20194;-63
2023/03/10 08:34:46;;;;;;;8.35;4.70;;;;;;;23.73;91.38;152005.72;5029777;28;20194;-64
2023/03/10 08:37:13;;;;;;;7.05;3.85;;;;;;;24.57;83.96;152217.69;5030074;28;20187;-65
2023/03/10 08:39:40;;;;;;;6.18;3.53;;;;;;;24.74;81.63;152261.13;5029710;28;20194;-65
2023/03/10 08:42:10;;;;;;;8.60;3.05;;;;;;;24.76;83.22;152266.25;5030002;28;20197;-65
2023/03/10 08:44:42;;;;;;;14.18;5.55;;;;;;;24.85;78.76;152289.31;5133423;27;20572;-65
2023/03/10 08:47:09;;;;;;;8.85;3.83;;;;;;;25.19;76.28;152374.88;5133357;27;20198;-65
2023/03/10 08:49:36;;;;;;;3.13;1.63;;;;;;;25.10;73.57;152350.59;5134005;27;20565;-65
2023/03/10 08:52:03;;;;;;;2.60;2.42;;;;;;;25.34;73.01;152411.91;5133442;27;20183;-66
2023/03/10 08:54:30;;;;;;;1.92;1.83;;;;;;;25.29;72.15;152400.41;5133744;27;20185;-65
2023/03/10 08:56:57;;;;;;;2.70;2.60;;;;;;;25.71;72.86;152506.56;5026350;27;20198;-65
2023/03/10 08:59:24;;;;;;;4.63;3.08;;;;;;;26.13;69.86;152611.38;5009819;28;20187;-65
2023/03/10 09:01:54;;;;;;;3.53;3.13;;;;;;;26.21;65.75;152631.84;5024859;28;20198;-65
2023/03/10 09:04:21;;;;;;;2.88;2.67;;;;;;;26.02;64.39;152584.50;5029623;28;20229;-65
2023/03/10 09:06:49;;;;;;;6.13;2.22;;;;;;;26.06;64.87;152593.44;5029544;28;20186;-66
2023/03/10 09:09:17;;;;;;;9.20;3.03;;;;;;;26.58;62.89;152725.19;5029115;28;20186;-63
2023/03/10 09:11:44;;;;;;;3.55;2.78;;;;;;;26.73;61.22;152763.56;5029187;28;20190;-65
2023/03/10 09:14:11;;;;;;;4.63;4.30;;;;;;;25.57;65.77;152470.75;5029523;28;20194;-65
2023/03/10 09:16:39;;;;;;;5.20;4.63;;;;;;;26.01;64.44;152581.97;5037371;28;20289;-66
2023/03/10 09:19:07;;;;;;;4.85;4.47;;;;;;;26.23;62.82;152636.94;5049270;28;20276;-65
2023/03/10 09:21:34;;;;;;;5.38;4.93;;;;;;;26.35;62.68;152667.69;5048800;28;20193;-65
2023/03/10 09:24:02;;;;;;;4.80;4.40;;;;;;;25.97;64.11;152571.69;5049129;28;20632;-65
2023/03/10 09:26:29;;;;;;;4.45;4.15;;;;;;;26.14;62.97;152615.16;5041333;28;20190;-65
2023/03/10 09:28:56;;;;;;;4.57;4.28;;;;;;;26.43;61.10;152688.13;5049425;28;20190;-64
2023/03/10 09:31:25;;;;;;;5.03;3.38;;;;;;;26.45;60.27;152693.22;5048733;28;20186;-64
2023/03/10 09:33:52;;;;;;;4.07;2.60;;;;;;;26.07;59.52;152597.28;5049311;28;20292;-64
2023/03/10 09:36:20;;;;;;;2.80;2.60;;;;;;;25.48;64.16;152449.00;5049029;28;20586;-65
2023/03/10 09:38:47;;;;;;;3.03;2.83;;;;;;;26.62;59.17;152736.69;5048782;28;20645;-64
2023/03/10 09:41:32;;;;;;;2.80;2.65;;;;;;;27.14;53.04;152867.22;5048537;28;20182;-65
2023/03/10 09:44:07;;;;;;;2.47;2.25;;;;;;;27.79;50.52;153031.03;5048824;28;20200;-64
2023/03/10 09:46:45;;;;;;;2.25;2.13;;;;;;;27.90;49.44;153059.16;5049117;28;20245;-65
2023/03/10 09:49:19;;;;;;;3.50;3.05;;;;;;;27.58;51.98;152979.81;5031347;28;20217;-64
2023/03/10 09:51:50;;;;;;;3.85;3.33;;;;;;;27.84;52.44;153045.09;5049464;28;20182;-64
2023/03/10 09:54:39;;;;;;;2.47;2.30;;;;;;;27.68;49.46;153005.44;5050864;28;20197;-65
2023/03/10 09:57:15;;;;;;;1.90;1.80;;;;;;;27.98;48.74;153080.94;5047709;28;20207;-64
2023/03/10 09:59:47;;;;;;;1.85;1.75;;;;;;;27.95;48.84;153071.97;5051420;28;20545;-64
2023/03/10 10:02:20;;;;;;;1.80;1.58;;;;;;;27.69;48.56;153008.00;5048554;28;20182;-64
2023/03/10 10:04:48;;;;;;;2.35;1.38;;;;;;;27.04;48.66;152841.59;5049942;28;20668;-65
2023/03/10 10:07:20;;;;;;;2.28;1.52;;;;;;;26.09;52.63;152602.44;5050434;28;20257;-63
2023/03/10 10:09:54;;;;;;;1.88;1.35;;;;;;;26.42;52.97;152685.56;5050267;28;20177;-65
2023/03/10 10:12:26;;;;;;;1.88;1.52;;;;;;;27.01;50.28;152833.94;5052689;28;20588;-64
2023/03/10 10:14:56;;;;;;;1.88;1.60;;;;;;;26.98;50.71;152827.56;5050694;28;20196;-66
2023/03/10 10:17:33;;;;;;;3.35;2.78;;;;;;;26.70;52.53;152757.16;5049707;28;20678;-64
2023/03/10 10:20:04;;;;;;;1.60;1.50;;;;;;;26.73;49.06;152763.56;5035284;28;20211;-66
2023/03/10 10:22:36;;;;;;;1.92;1.60;;;;;;;26.28;48.73;152649.75;5053753;28;20681;-64
2023/03/10 10:25:17;;;;;;;1.30;1.30;;;;;;;26.08;49.52;152599.84;5052160;28;20216;-65
2023/03/10 10:27:46;;;;;;;2.10;1.90;;;;;;;26.44;50.54;152689.41;5052532;28;20197;-65
2023/03/10 10:30:36;;;;;;;3.97;2.17;;;;;;;26.88;48.50;152801.97;5052846;28;20185;-64
2023/03/10 10:33:04;;;;;;;2.45;2.25;;;;;;;26.12;49.93;152608.78;5052688;28;20181;-63
2023/03/10 10:35:35;;;;;;;1.48;1.48;;;;;;;25.35;51.43;152414.47;5053457;28;20189;-63
2023/03/10 10:38:05;;;;;;;1.92;1.70;;;;;;;25.49;51.70;152450.28;5052164;28;20186;-63
2023/03/10 10:40:35;;;;;;;2.95;2.03;;;;;;;25.70;56.23;152502.72;5051726;28;20182;-64
2023/03/10 10:43:04;;;;;;;2.17;2.08;;;;;;;25.56;58.71;152468.19;5051613;28;20258;-64
2023/03/10 10:45:36;;;;;;;3.40;2.30;;;;;;;25.06;61.56;152341.66;5051000;28;20249;-64
2023/03/10 10:48:04;;;;;;;1.88;1.77;;;;;;;24.26;66.32;152138.56;5051311;28;20181;-65
2023/03/10 10:50:32;;;;;;;1.73;1.73;;;;;;;22.49;81.13;151691.81;5051709;28;20678;-64
2023/03/10 10:53:19;;;;;;;2.05;1.60;;;;;;;22.22;84.87;151625.50;5051153;28;20276;-63
2023/03/10 10:55:58;;;;;;;1.60;1.60;;;;;;;21.59;90.45;151466.09;5051209;28;20208;-63
2023/03/10 10:58:29;;;;;;;1.52;1.45;;;;;;;20.69;99.39;151237.97;5051133;28;20260;-64
2023/03/10 11:00:57;;;;;;;3.22;1.50;;;;;;;20.82;99.65;151271.09;5051261;28;20186;-64
2023/03/10 11:03:27;;;;;;;3.30;1.83;;;;;;;21.21;96.97;151369.25;5051260;28;20640;-63
2023/03/10 11:05:54;;;;;;;1.65;1.63;;;;;;;21.51;93.02;151444.44;5051301;28;20210;-63
2023/03/10 11:08:33;;;;;;;1.70;1.65;;;;;;;21.69;93.16;151491.56;5051131;28;20186;-64
2023/03/10 11:11:07;;;;;;;2.47;2.38;;;;;;;20.72;99.66;151246.88;5051334;28;20596;-63
2023/03/10 11:13:45;;;;;;;1.85;1.75;;;;;;;19.96;100.00;151055.81;5050639;28;20189;-63
2023/03/10 11:16:24;;;;;;;4.28;1.90;;;;;;;20.59;100.00;151213.75;5050419;27;20229;-63
2023/03/10 11:19:00;;;;;;;3.55;1.77;;;;;;;21.02;99.15;151320.75;5050848;28;20192;-63
2023/03/10 11:21:31;;;;;;;1.90;1.80;;;;;;;20.80;100.00;151267.25;5050488;28;20188;-62
2023/03/10 11:24:13;;;;;;;2.10;1.75;;;;;;;20.03;100.00;151073.63;5051139;28;20189;-62
2023/03/10 11:26:51;;;;;;;9.00;2.07;;;;;;;19.64;100.00;150973.09;5050821;28;20209;-62